Time;durP1;ratioP1;P1;durP2;ratioP2;P2;SDS_P1;SDS_P2;PMS_P1;PMS_P2;Temp;Humidity;BMP_temperature;BMP_pressure;BME280_temperature;BME280_humidity;BME280_pressure;Samples;Min_cycle;Max_cycle;Signal;HPM_P1;HPM_P2
2022/01/16 00:00:19;;;;;;;9.55;5.70;;;;;;;0.24;45.78;94676.94;4995427;28;20051;-74
2022/01/16 00:05:21;;;;;;;13.73;5.32;;;;;;;-0.02;47.60;94679.19;4996124;28;20053;-73
2022/01/16 00:07:50;;;;;;;8.10;4.75;;;;;;;-0.35;49.07;94656.97;4995297;28;20044;-74
2022/01/16 00:10:18;;;;;;;9.60;5.03;;;;;;;-0.14;49.23;94653.03;4995069;28;20065;-73
2022/01/16 00:12:48;;;;;;;6.05;3.90;;;;;;;-0.09;49.35;94661.78;4999537;28;20127;-74
2022/01/16 00:15:17;;;;;;;11.15;5.38;;;;;;;-0.08;50.89;94662.56;4995230;28;20029;-74
2022/01/16 00:17:54;;;;;;;5.47;3.83;;;;;;;0.01;50.54;94681.34;4996252;28;20441;-74
2022/01/16 00:20:21;;;;;;;8.05;4.55;;;;;;;0.02;50.98;94698.63;5015432;28;20030;-73
2022/01/16 00:22:48;;;;;;;9.48;5.03;;;;;;;0.06;51.08;94716.25;4984233;28;20787;-74
2022/01/16 00:25:14;;;;;;;11.23;6.55;;;;;;;-0.04;51.46;94736.94;5003968;28;20133;-73
2022/01/16 00:27:40;;;;;;;8.10;4.95;;;;;;;-0.09;51.57;94731.56;4998803;28;20119;-73
2022/01/16 00:30:06;;;;;;;10.05;5.63;;;;;;;0.04;51.73;94764.59;4997718;28;20802;-74
2022/01/16 00:32:31;;;;;;;7.05;5.10;;;;;;;0.22;51.39;94793.28;4991612;28;20048;-73
2022/01/16 00:34:57;;;;;;;6.65;4.03;;;;;;;0.02;51.40;94662.00;4995253;28;20364;-74
2022/01/16 00:37:22;;;;;;;7.10;4.80;;;;;;;-0.23;52.03;94629.00;5002336;28;20988;-73
2022/01/16 00:39:48;;;;;;;9.50;6.22;;;;;;;-0.19;52.07;94702.59;4995142;28;20239;-73
2022/01/16 00:42:13;;;;;;;7.97;3.90;;;;;;;-0.26;52.83;94689.59;4997614;28;20944;-74
2022/01/16 00:44:39;;;;;;;7.50;4.38;;;;;;;-0.31;52.70;94563.22;5005624;28;20541;-74
2022/01/16 00:47:04;;;;;;;9.55;4.80;;;;;;;-0.20;52.53;94619.94;5006566;28;20049;-74
2022/01/16 00:49:34;;;;;;;5.72;4.18;;;;;;;-0.18;53.01;94613.44;4995339;28;20699;-75
2022/01/16 00:52:00;;;;;;;9.60;4.75;;;;;;;-0.31;52.76;94500.47;5004763;28;20090;-73
2022/01/16 00:54:25;;;;;;;13.10;5.10;;;;;;;-0.30;53.31;94555.16;4998886;28;20038;-74
2022/01/16 00:56:51;;;;;;;8.90;5.15;;;;;;;-0.30;52.77;94528.22;5002178;28;20029;-73
2022/01/16 00:59:16;;;;;;;9.20;4.93;;;;;;;-0.08;52.52;94547.50;4998468;28;20045;-74
2022/01/16 01:01:41;;;;;;;7.75;5.18;;;;;;;-0.28;52.88;94599.34;5001707;28;20813;-73
2022/01/16 01:04:07;;;;;;;6.60;4.60;;;;;;;-0.29;52.83;94623.91;4998002;28;20139;-74
2022/01/16 01:06:32;;;;;;;7.68;4.78;;;;;;;-0.29;53.01;94629.13;4999701;28;20045;-73
2022/01/16 01:08:57;;;;;;;7.05;4.47;;;;;;;-0.37;52.80;94600.69;5001593;28;20068;-74
2022/01/16 01:11:27;;;;;;;5.55;3.42;;;;;;;-0.21;52.67;94629.59;4994656;28;20517;-73
2022/01/16 01:16:48;;;;;;;3.88;3.55;;;;;;;-0.34;52.90;94632.44;4994073;28;20091;-74
2022/01/16 01:19:13;;;;;;;9.63;4.47;;;;;;;-0.30;52.89;94619.69;5006333;28;20045;-73
2022/01/16 01:21:39;;;;;;;8.63;4.00;;;;;;;-0.18;52.64;94639.59;4989839;28;20069;-74
2022/01/16 01:24:05;;;;;;;7.25;4.45;;;;;;;-0.04;52.26;94610.63;5000105;28;20877;-74
2022/01/16 01:26:36;;;;;;;8.07;3.72;;;;;;;0.00;52.00;94638.72;5004824;28;20296;-75
2022/01/16 01:29:03;;;;;;;8.00;4.60;;;;;;;-0.04;52.08;94647.25;5005171;28;20216;-74
2022/01/16 01:31:30;;;;;;;7.10;4.93;;;;;;;-0.18;52.01;94605.59;5006431;28;20136;-75
2022/01/16 01:33:55;;;;;;;5.22;4.00;;;;;;;0.04;51.69;94628.59;4999207;28;20437;-74
2022/01/16 01:36:21;;;;;;;7.18;4.18;;;;;;;0.01;51.64;94640.28;5004870;28;20022;-74
2022/01/16 01:38:46;;;;;;;6.00;3.97;;;;;;;0.08;51.41;94640.97;5003136;28;20197;-73
2022/01/16 01:41:11;;;;;;;5.20;3.42;;;;;;;-0.18;51.96;94650.06;5002132;28;20034;-74
2022/01/16 01:51:36;;;;;;;6.53;4.25;;;;;;;-0.02;52.21;94698.28;5007854;28;20504;-74
2022/01/16 01:54:05;;;;;;;7.00;4.15;;;;;;;-0.18;51.99;94652.66;5009672;28;20025;-74
2022/01/16 01:56:31;;;;;;;5.05;4.22;;;;;;;-0.19;51.83;94630.16;5004925;28;20129;-74
2022/01/16 01:58:59;;;;;;;8.15;4.68;;;;;;;0.06;52.05;94682.25;5008393;28;20041;-73
2022/01/16 02:01:26;;;;;;;6.65;4.47;;;;;;;0.12;51.89;94677.94;5000999;28;20062;-74
2022/01/16 02:03:52;;;;;;;8.05;5.22;;;;;;;-0.01;51.92;94657.22;5000198;28;20108;-74
2022/01/16 02:06:20;;;;;;;6.32;4.43;;;;;;;0.02;52.26;94669.84;5001845;28;20477;-73
2022/01/16 02:08:52;;;;;;;5.97;3.72;;;;;;;0.16;52.42;94679.88;4992854;28;20534;-74
2022/01/16 02:11:19;;;;;;;6.07;3.47;;;;;;;0.08;51.98;94667.13;5001383;28;20041;-74
2022/01/16 02:32:49;;;;;;;7.90;4.70;;;;;;;0.82;49.11;94652.50;5001590;28;20905;-73
2022/01/16 02:35:17;;;;;;;7.13;4.18;;;;;;;0.91;49.20;94671.25;4999086;28;20061;-75
2022/01/16 02:37:43;;;;;;;8.68;4.20;;;;;;;0.96;48.62;94645.97;4998009;28;20067;-74
2022/01/16 02:40:17;;;;;;;11.00;4.82;;;;;;;1.10;48.40;94664.81;5002180;28;20037;-73
2022/01/16 02:42:49;;;;;;;11.20;5.57;;;;;;;1.10;47.99;94639.41;5002904;28;20044;-73
2022/01/16 02:45:27;;;;;;;14.52;5.85;;;;;;;1.24;47.68;94637.31;5000938;28;20459;-73
2022/01/16 02:47:54;;;;;;;9.98;6.07;;;;;;;1.18;47.58;94664.47;5004364;28;20025;-74
2022/01/16 02:50:20;;;;;;;14.30;6.95;;;;;;;0.88;48.33;94659.44;5005427;28;20038;-74
2022/01/16 02:52:45;;;;;;;17.40;8.40;;;;;;;0.87;49.15;94668.31;5007065;28;20409;-75
2022/01/16 02:55:13;;;;;;;15.43;7.65;;;;;;;0.83;49.72;94664.56;5005713;28;20091;-73
2022/01/16 02:57:39;;;;;;;12.82;8.63;;;;;;;0.86;49.96;94663.28;5005598;28;20513;-74
2022/01/16 03:00:05;;;;;;;14.38;8.98;;;;;;;0.90;50.06;94664.41;5006412;28;20084;-73
2022/01/16 03:02:31;;;;;;;15.93;7.65;;;;;;;0.67;50.31;94634.66;5010018;28;20092;-73
2022/01/16 03:04:56;;;;;;;16.42;7.38;;;;;;;0.88;50.42;94669.91;4997676;28;20050;-74
2022/01/16 03:07:22;;;;;;;15.52;7.55;;;;;;;0.51;50.70;94621.47;5002422;28;20042;-74
2022/01/16 03:12:51;;;;;;;7.45;5.32;;;;;;;0.97;50.11;94659.84;4992997;28;20045;-73
2022/01/16 03:15:18;;;;;;;11.77;6.53;;;;;;;0.46;50.88;94658.00;4998556;28;20451;-75
2022/01/16 03:23:09;;;;;;;7.47;4.97;;;;;;;-0.05;53.08;94666.56;4983883;28;20044;-73
2022/01/16 03:25:35;;;;;;;7.03;5.63;;;;;;;-0.14;53.44;94648.56;4994697;28;20053;-75
2022/01/16 03:28:08;;;;;;;16.05;10.02;;;;;;;0.29;52.80;94663.97;5000229;28;20513;-76
2022/01/16 03:30:34;;;;;;;14.95;9.13;;;;;;;0.52;51.92;94660.53;5009062;28;20041;-74
2022/01/16 03:32:59;;;;;;;10.82;6.90;;;;;;;0.71;51.26;94661.16;5000103;28;20029;-74
2022/01/16 03:35:25;;;;;;;12.85;6.05;;;;;;;0.73;50.80;94657.31;5007902;28;20980;-75
2022/01/16 03:37:50;;;;;;;11.73;6.53;;;;;;;0.77;50.56;94681.19;5013574;28;20030;-74
2022/01/16 03:40:17;;;;;;;10.88;6.45;;;;;;;0.64;50.09;94655.28;5000706;28;20084;-74
2022/01/16 03:42:42;;;;;;;7.30;5.60;;;;;;;0.61;50.88;94676.66;5000668;28;21025;-74
2022/01/16 03:45:09;;;;;;;8.02;5.70;;;;;;;0.58;51.52;94684.97;5003161;28;20041;-73
2022/01/16 03:47:35;;;;;;;15.07;5.93;;;;;;;0.58;51.60;94693.63;5002680;28;20064;-73
2022/01/16 03:50:02;;;;;;;10.90;5.75;;;;;;;0.51;51.90;94672.00;5002932;28;20497;-73
2022/01/16 03:52:27;;;;;;;9.18;5.90;;;;;;;0.22;52.38;94670.31;5001993;28;20044;-73
2022/01/16 03:54:53;;;;;;;9.98;6.53;;;;;;;0.15;52.61;94673.06;4999806;28;20041;-73
2022/01/16 03:57:18;;;;;;;10.38;6.38;;;;;;;-0.02;53.22;94671.34;5002198;28;20577;-73
2022/01/16 03:59:44;;;;;;;9.05;6.35;;;;;;;0.07;53.64;94680.44;5006075;28;20032;-74
2022/01/16 04:02:10;;;;;;;12.57;6.38;;;;;;;-0.07;53.28;94666.78;4995875;28;20034;-73
2022/01/16 04:04:35;;;;;;;13.70;6.97;;;;;;;-0.11;53.41;94666.44;5000406;28;20049;-73
2022/01/16 04:07:01;;;;;;;13.23;6.68;;;;;;;-0.24;53.82;94679.69;4999956;28;20046;-75
2022/01/16 04:09:27;;;;;;;10.00;6.70;;;;;;;-0.21;53.91;94687.13;5005741;28;20045;-73
2022/01/16 04:11:56;;;;;;;11.60;5.78;;;;;;;-0.43;53.75;94638.97;5007353;28;20030;-73
2022/01/16 04:15:31;;;;;;;9.95;5.80;;;;;;;-0.36;53.99;94671.06;4997465;28;20144;-73
2022/01/16 04:17:15;;;;;;;7.82;5.38;;;;;;;-0.34;54.02;94678.69;4998632;28;20509;-73
2022/01/16 04:19:41;;;;;;;9.88;5.78;;;;;;;-0.09;53.54;94677.44;4996243;28;20645;-75
2022/01/16 04:22:07;;;;;;;9.70;6.20;;;;;;;0.04;53.34;94707.06;5006649;28;20037;-73
2022/01/16 04:24:33;;;;;;;14.90;6.78;;;;;;;0.04;53.15;94707.84;5004193;28;20451;-73
2022/01/16 04:26:59;;;;;;;15.73;8.48;;;;;;;-0.03;52.98;94681.00;5000873;28;20164;-73
2022/01/16 04:29:24;;;;;;;18.33;8.52;;;;;;;-0.19;52.36;94614.47;5007773;28;20053;-74
2022/01/16 04:31:50;;;;;;;16.35;8.82;;;;;;;0.46;52.01;94711.16;4997460;28;20061;-73
2022/01/16 04:34:15;;;;;;;20.92;10.45;;;;;;;0.44;51.81;94717.66;4995904;28;20046;-73
2022/01/16 04:36:40;;;;;;;14.73;9.32;;;;;;;0.35;52.05;94704.09;5003832;28;20037;-75
2022/01/16 04:39:14;;;;;;;14.35;8.60;;;;;;;0.46;51.42;94699.88;5002546;28;20452;-74
2022/01/16 04:44:24;;;;;;;8.43;5.30;;;;;;;0.49;51.53;94721.19;5001298;28;20060;-74
2022/01/16 04:46:50;;;;;;;16.38;7.40;;;;;;;0.36;51.65;94716.16;4996576;28;20497;-73
2022/01/16 04:49:15;;;;;;;14.20;7.70;;;;;;;0.10;51.86;94716.63;4998909;28;20207;-73
2022/01/16 04:51:41;;;;;;;8.98;5.88;;;;;;;-0.26;52.91;94707.91;4999269;28;20408;-72
2022/01/16 04:54:08;;;;;;;11.48;7.22;;;;;;;-0.26;52.97;94687.00;5000329;28;20531;-75
2022/01/16 04:56:33;;;;;;;12.68;7.20;;;;;;;-0.02;52.71;94707.94;5005676;28;20037;-74
2022/01/16 04:58:59;;;;;;;9.88;5.75;;;;;;;-0.10;53.15;94711.69;5004175;28;20045;-74
2022/01/16 05:01:24;;;;;;;10.10;6.20;;;;;;;-0.08;52.98;94699.97;4996723;28;20761;-74
2022/01/16 05:03:50;;;;;;;12.45;6.43;;;;;;;0.03;52.80;94705.44;5004229;28;20387;-74
2022/01/16 05:06:15;;;;;;;12.80;6.35;;;;;;;0.08;52.70;94713.41;5000666;28;20021;-74
2022/01/16 05:08:41;;;;;;;9.48;5.78;;;;;;;0.01;53.08;94707.50;5001900;28;20110;-73
2022/01/16 05:11:08;;;;;;;13.43;6.30;;;;;;;-0.14;53.07;94687.03;4995354;28;20040;-73
2022/01/16 05:18:50;;;;;;;8.07;6.07;;;;;;;-0.03;53.16;94685.41;4997257;28;20610;-74
2022/01/16 05:21:16;;;;;;;9.10;5.85;;;;;;;0.12;52.30;94683.97;4998799;28;20026;-74
2022/01/16 05:23:42;;;;;;;10.32;5.55;;;;;;;0.18;52.43;94698.75;5000345;28;20025;-73
2022/01/16 05:26:10;;;;;;;7.38;5.20;;;;;;;0.21;52.24;94687.03;5000705;28;20042;-74
2022/01/16 05:28:36;;;;;;;16.73;9.13;;;;;;;0.39;52.05;94710.50;5001232;28;20092;-74
2022/01/16 05:31:02;;;;;;;10.80;6.50;;;;;;;0.24;52.06;94704.91;4992997;28;20445;-74
2022/01/16 05:33:27;;;;;;;12.70;8.05;;;;;;;-0.18;52.82;94691.88;5002287;28;20101;-73
2022/01/16 05:35:53;;;;;;;14.00;9.50;;;;;;;-0.15;52.93;94688.84;4998416;28;20029;-74
2022/01/16 05:38:18;;;;;;;12.82;7.00;;;;;;;-0.23;52.74;94675.28;5000947;28;20037;-74
2022/01/16 05:40:44;;;;;;;22.08;10.30;;;;;;;-0.18;52.91;94678.81;5001004;28;20124;-74
2022/01/16 05:43:10;;;;;;;12.77;8.00;;;;;;;0.08;52.50;94714.22;4998457;28;20474;-73
2022/01/16 05:45:37;;;;;;;10.52;7.57;;;;;;;0.13;52.25;94711.72;4997124;28;20138;-73
2022/01/16 05:48:02;;;;;;;18.15;7.22;;;;;;;0.18;52.19;94727.53;4999994;28;20620;-73
2022/01/16 05:50:31;;;;;;;17.00;8.23;;;;;;;0.27;51.79;94702.63;4998940;28;20557;-74
2022/01/16 05:52:57;;;;;;;15.85;8.18;;;;;;;0.11;51.07;94660.63;5000092;28;20034;-75
2022/01/16 05:55:29;;;;;;;12.65;8.82;;;;;;;0.38;50.68;94693.19;5000228;28;20148;-75
2022/01/16 05:57:55;;;;;;;21.55;12.13;;;;;;;0.60;50.84;94730.03;4997333;28;20038;-74
2022/01/16 06:00:21;;;;;;;16.20;8.80;;;;;;;0.79;50.00;94732.31;5001469;28;20526;-73
2022/01/16 06:02:46;;;;;;;16.05;7.40;;;;;;;0.74;49.86;94713.09;4997737;28;20413;-74
2022/01/16 06:05:12;;;;;;;14.25;8.05;;;;;;;0.71;49.84;94711.72;5000840;28;20413;-73
2022/01/16 06:07:41;;;;;;;12.80;7.85;;;;;;;0.99;49.32;94726.69;4996601;28;20053;-74
2022/01/16 06:10:06;;;;;;;11.73;7.10;;;;;;;1.09;48.48;94715.63;5001155;28;20045;-74
2022/01/16 06:12:32;;;;;;;10.95;6.78;;;;;;;1.08;48.32;94714.06;5007010;28;20528;-74
2022/01/16 06:14:57;;;;;;;10.02;6.05;;;;;;;1.24;48.05;94729.03;5006590;28;20026;-74
2022/01/16 06:17:23;;;;;;;10.02;4.65;;;;;;;0.90;47.52;94674.91;5002309;28;20030;-73
2022/01/16 06:19:48;;;;;;;12.15;6.35;;;;;;;1.49;47.03;94731.34;5004249;28;20431;-73
2022/01/16 06:22:13;;;;;;;10.00;6.30;;;;;;;1.42;46.66;94715.78;5002605;28;20059;-75
2022/01/16 06:24:39;;;;;;;12.38;6.28;;;;;;;1.33;46.58;94690.13;5003371;28;20045;-73
2022/01/16 06:27:04;;;;;;;10.25;5.97;;;;;;;1.35;46.65;94728.19;4996704;28;20033;-74
2022/01/16 06:29:30;;;;;;;14.32;6.03;;;;;;;1.49;46.38;94737.38;5009769;28;20073;-75
2022/01/16 06:31:55;;;;;;;11.85;6.70;;;;;;;1.57;46.47;94737.00;4995522;28;20052;-75
2022/01/16 06:34:21;;;;;;;13.90;6.00;;;;;;;1.50;46.47;94711.97;5006455;28;20034;-73
2022/01/16 06:36:46;;;;;;;9.55;5.90;;;;;;;1.63;46.12;94732.66;5001716;28;20038;-74
2022/01/16 06:39:12;;;;;;;11.52;7.25;;;;;;;1.76;46.37;94757.81;5002438;28;20501;-73
2022/01/16 06:41:38;;;;;;;10.20;6.00;;;;;;;1.86;45.53;94758.00;4999211;28;20037;-74
2022/01/16 06:44:04;;;;;;;9.27;5.07;;;;;;;1.67;45.05;94734.56;5004734;28;20125;-74
2022/01/16 06:46:30;;;;;;;17.45;8.57;;;;;;;1.64;45.60;94750.78;4995567;28;20037;-75
2022/01/16 06:48:56;;;;;;;18.00;8.40;;;;;;;1.61;45.60;94743.38;5010303;28;20419;-73
2022/01/16 06:51:22;;;;;;;20.08;9.50;;;;;;;1.76;45.81;94747.31;4997556;28;20033;-73
2022/01/16 06:53:49;;;;;;;11.07;7.05;;;;;;;1.78;45.57;94747.84;5006272;28;20036;-74
2022/01/16 06:56:16;;;;;;;21.65;9.90;;;;;;;1.83;45.47;94754.00;5000868;28;20034;-74
2022/01/16 06:58:42;;;;;;;21.02;8.95;;;;;;;1.68;45.91;94746.66;5004898;28;20516;-74
2022/01/16 07:01:08;;;;;;;15.63;9.00;;;;;;;1.85;45.72;94756.41;5003653;28;20034;-74
2022/01/16 07:03:33;;;;;;;15.13;6.05;;;;;;;1.98;45.30;94767.41;5006310;28;20038;-75
2022/01/16 07:06:00;;;;;;;11.15;6.97;;;;;;;1.75;45.83;94766.69;5005860;28;20056;-73
2022/01/16 07:08:26;;;;;;;9.10;6.38;;;;;;;1.68;45.73;94725.66;5009200;28;20081;-74
2022/01/16 07:10:54;;;;;;;13.10;7.13;;;;;;;2.13;45.66;94774.75;5005345;28;20144;-74
2022/01/16 07:13:21;;;;;;;14.80;7.32;;;;;;;2.20;45.44;94783.28;4994867;28;20083;-74
2022/01/16 07:15:47;;;;;;;16.65;9.43;;;;;;;2.04;45.58;94781.41;5002376;28;20057;-73
2022/01/16 07:18:13;;;;;;;20.60;10.65;;;;;;;1.85;45.85;94766.88;5002988;28;20080;-73
2022/01/16 07:20:38;;;;;;;12.13;6.13;;;;;;;2.05;45.67;94769.91;4996922;28;20030;-73
2022/01/16 07:23:05;;;;;;;12.07;7.07;;;;;;;1.96;45.76;94753.72;5004129;28;20462;-74
2022/01/16 07:25:33;;;;;;;12.13;7.35;;;;;;;2.08;45.85;94772.03;5002300;28;20053;-75
2022/01/16 07:27:58;;;;;;;18.77;9.75;;;;;;;1.92;46.21;94767.56;5003709;28;20072;-74
2022/01/16 07:30:23;;;;;;;11.27;7.57;;;;;;;1.82;46.16;94767.34;5000035;28;20104;-74
2022/01/16 07:32:49;;;;;;;9.88;6.10;;;;;;;1.48;47.12;94763.81;4994801;28;20900;-73
2022/01/16 07:35:14;;;;;;;12.98;6.72;;;;;;;1.60;47.03;94765.41;4996651;28;20038;-73
2022/01/16 07:37:39;;;;;;;10.85;7.00;;;;;;;1.62;46.92;94779.03;5008345;28;20465;-73
2022/01/16 07:40:06;;;;;;;15.70;7.32;;;;;;;1.57;47.14;94776.31;5000665;28;20073;-75
2022/01/16 07:42:32;;;;;;;8.10;5.40;;;;;;;1.74;46.63;94786.09;5005924;28;20038;-73
2022/01/16 07:44:58;;;;;;;13.93;8.07;;;;;;;1.19;47.52;94755.13;5006155;28;20017;-75
2022/01/16 07:47:23;;;;;;;7.05;4.85;;;;;;;1.27;47.73;94775.75;5003440;28;20773;-74
2022/01/16 07:49:49;;;;;;;10.30;5.68;;;;;;;1.44;47.43;94776.59;5000809;28;20502;-74
2022/01/16 07:52:14;;;;;;;9.40;5.78;;;;;;;1.32;47.52;94777.69;5002923;28;20462;-74
2022/01/16 07:54:40;;;;;;;17.67;8.50;;;;;;;1.47;47.70;94807.59;5000751;28;20133;-75
2022/01/16 07:57:05;;;;;;;10.60;7.05;;;;;;;1.16;47.97;94784.44;5003334;28;20470;-74
2022/01/16 07:59:31;;;;;;;12.27;6.43;;;;;;;1.60;47.68;94796.84;5003167;28;20041;-75
2022/01/16 08:01:56;;;;;;;20.92;9.85;;;;;;;1.72;47.37;94815.16;4998122;28;20038;-74
2022/01/16 08:04:22;;;;;;;15.18;7.95;;;;;;;1.43;47.72;94780.25;5002488;28;20161;-74
2022/01/16 08:06:47;;;;;;;17.45;9.13;;;;;;;1.67;46.70;94780.97;5006685;28;20120;-74
2022/01/16 08:09:12;;;;;;;16.05;7.07;;;;;;;1.38;47.18;94777.53;5002593;28;20042;-74
2022/01/16 08:11:38;;;;;;;9.98;6.32;;;;;;;1.62;47.28;94802.66;5000884;28;20083;-74
2022/01/16 08:14:03;;;;;;;32.47;11.30;;;;;;;1.59;47.59;94795.25;5003596;28;20500;-73
2022/01/16 08:16:29;;;;;;;14.27;7.20;;;;;;;1.64;47.33;94769.13;5006074;28;20046;-73
2022/01/16 08:18:55;;;;;;;11.93;6.68;;;;;;;1.15;48.02;94795.94;5000076;28;20044;-74
2022/01/16 08:21:20;;;;;;;11.35;7.03;;;;;;;1.20;48.73;94811.75;5004942;28;20029;-74
2022/01/16 08:23:46;;;;;;;12.85;7.03;;;;;;;1.39;48.19;94809.78;4997828;28;20689;-75
2022/01/16 08:26:11;;;;;;;14.30;7.28;;;;;;;1.25;48.65;94804.00;5003591;28;20150;-74
2022/01/16 08:28:36;;;;;;;10.60;6.22;;;;;;;1.61;48.15;94787.97;4997349;28;20778;-73
2022/01/16 08:31:02;;;;;;;11.68;7.00;;;;;;;1.14;48.59;94796.94;5003613;28;20030;-73
2022/01/16 08:33:27;;;;;;;13.68;7.97;;;;;;;1.49;48.61;94800.31;5001338;28;20409;-74
2022/01/16 08:35:53;;;;;;;14.57;8.02;;;;;;;1.48;48.36;94772.47;4996624;28;21378;-74
2022/01/16 08:38:18;;;;;;;11.02;7.00;;;;;;;1.81;47.52;94799.88;5001377;28;20037;-73
2022/01/16 08:40:44;;;;;;;13.40;6.50;;;;;;;2.07;47.34;94792.22;4998989;28;20065;-75
2022/01/16 08:43:09;;;;;;;11.45;7.57;;;;;;;1.92;47.04;94736.06;4995686;28;20037;-74
2022/01/16 08:45:37;;;;;;;16.02;7.00;;;;;;;2.34;46.67;94792.44;5002404;28;20045;-73
2022/01/16 08:48:03;;;;;;;11.90;6.57;;;;;;;2.36;46.13;94785.09;5001521;28;20025;-73
2022/01/16 08:50:28;;;;;;;13.27;7.18;;;;;;;2.03;46.58;94785.88;5002214;28;20401;-74
2022/01/16 08:52:54;;;;;;;11.60;7.25;;;;;;;2.48;46.36;94798.19;4996974;28;20045;-73
2022/01/16 08:55:19;;;;;;;19.05;8.98;;;;;;;2.23;46.37;94788.06;4998626;28;20049;-73
2022/01/16 08:57:45;;;;;;;12.43;6.80;;;;;;;2.44;46.41;94762.94;5002120;28;20528;-74
2022/01/16 09:00:10;;;;;;;12.43;7.30;;;;;;;2.48;45.78;94766.66;5001857;28;20033;-74
2022/01/16 09:02:36;;;;;;;11.13;7.03;;;;;;;2.35;45.91;94773.00;4998084;28;20038;-74
2022/01/16 09:05:03;;;;;;;8.85;5.95;;;;;;;2.22;46.54;94769.91;4998303;28;20156;-74
2022/01/16 09:07:29;;;;;;;28.67;12.23;;;;;;;2.34;45.95;94741.75;5001857;28;20083;-74
2022/01/16 09:09:56;;;;;;;12.35;6.95;;;;;;;2.66;45.30;94752.47;5002433;28;20609;-74
2022/01/16 09:12:22;;;;;;;11.18;5.95;;;;;;;2.71;44.94;94776.19;4999936;28;20018;-75
2022/01/16 09:14:47;;;;;;;14.15;7.07;;;;;;;2.78;45.28;94745.31;5000534;28;20053;-74
2022/01/16 09:17:13;;;;;;;17.10;8.18;;;;;;;3.03;44.60;94769.31;5000878;28;20457;-74
2022/01/16 09:19:38;;;;;;;11.20;7.07;;;;;;;2.43;45.74;94759.50;5004234;28;20580;-74
2022/01/16 09:22:04;;;;;;;10.70;5.68;;;;;;;2.82;45.51;94762.19;4995975;28;20563;-75
2022/01/16 09:24:31;;;;;;;20.30;8.27;;;;;;;3.17;45.21;94760.03;5003596;28;20042;-75
2022/01/16 09:26:56;;;;;;;18.83;10.73;;;;;;;2.41;46.54;94760.75;4996837;28;20039;-75
2022/01/16 09:29:21;;;;;;;23.13;11.98;;;;;;;2.27;47.30;94749.78;4997282;28;21201;-74
2022/01/16 09:31:47;;;;;;;18.98;10.45;;;;;;;1.41;48.66;94740.38;5000571;28;20076;-74
2022/01/16 09:34:13;;;;;;;16.88;9.13;;;;;;;1.47;49.48;94760.41;4990054;28;20038;-73
2022/01/16 09:36:38;;;;;;;19.23;9.75;;;;;;;1.45;49.60;94736.25;4983685;28;20058;-73
2022/01/16 09:39:04;;;;;;;17.70;9.60;;;;;;;1.85;48.91;94704.72;4996985;28;20036;-74
2022/01/16 09:41:29;;;;;;;15.55;9.15;;;;;;;2.47;47.61;94729.09;5002596;28;20434;-74
2022/01/16 09:43:55;;;;;;;22.88;11.60;;;;;;;2.78;46.43;94740.06;5001452;28;20073;-74
2022/01/16 09:46:20;;;;;;;15.88;8.63;;;;;;;1.53;49.42;94728.00;4999118;28;20041;-74
2022/01/16 09:48:46;;;;;;;17.85;9.32;;;;;;;2.11;48.46;94718.31;4998022;28;20585;-75
2022/01/16 09:51:11;;;;;;;19.17;10.02;;;;;;;1.99;48.36;94719.16;4998326;28;20030;-74
2022/01/16 09:53:41;;;;;;;18.38;9.88;;;;;;;2.31;47.53;94729.91;4994450;28;20750;-74
2022/01/16 09:56:07;;;;;;;16.63;9.18;;;;;;;2.04;47.78;94728.94;5003601;28;20447;-75
2022/01/16 09:58:33;;;;;;;17.70;8.30;;;;;;;2.27;46.84;94712.25;5001844;28;20413;-73
2022/01/16 10:00:59;;;;;;;16.08;9.02;;;;;;;2.43;46.64;94719.31;4997804;28;20041;-74
2022/01/16 10:03:40;;;;;;;17.52;9.60;;;;;;;2.56;46.75;94723.44;5001976;28;20281;-74
2022/01/16 10:06:21;;;;;;;15.65;9.45;;;;;;;1.88;47.51;94670.16;5011878;28;20092;-75
2022/01/16 10:08:51;;;;;;;16.35;9.05;;;;;;;2.57;47.00;94709.28;5002319;28;20077;-75
2022/01/16 10:11:33;;;;;;;16.25;10.13;;;;;;;1.95;47.56;94715.44;4996764;28;20029;-74
2022/01/16 10:14:09;;;;;;;11.82;8.35;;;;;;;2.26;47.57;94700.94;5005009;28;20037;-74
2022/01/16 10:16:39;;;;;;;19.98;9.40;;;;;;;2.78;46.48;94703.28;5005463;28;20489;-75
2022/01/16 10:19:27;;;;;;;16.40;9.25;;;;;;;2.59;46.26;94631.84;5004575;28;20034;-74
2022/01/16 10:21:54;;;;;;;20.00;10.05;;;;;;;2.38;46.47;94646.53;4992979;28;20546;-74
2022/01/16 10:24:28;;;;;;;21.10;10.90;;;;;;;2.84;46.45;94704.94;5006461;28;20065;-74
2022/01/16 10:27:09;;;;;;;17.75;10.43;;;;;;;1.87;48.05;94707.13;5005529;28;20034;-75
2022/01/16 10:29:40;;;;;;;17.83;10.05;;;;;;;2.46;47.38;94696.00;5003220;28;20050;-74
2022/01/16 10:32:15;;;;;;;16.80;10.52;;;;;;;3.13;46.37;94701.09;4999541;28;20152;-74
2022/01/16 10:34:41;;;;;;;18.75;9.30;;;;;;;2.94;45.49;94655.13;5005911;28;20501;-74
2022/01/16 10:37:20;;;;;;;20.45;9.77;;;;;;;3.44;45.07;94675.13;5001856;28;20045;-74
2022/01/16 10:39:57;;;;;;;16.08;8.88;;;;;;;3.18;45.20;94667.00;5003714;28;20587;-74
2022/01/16 10:42:23;;;;;;;16.42;9.07;;;;;;;3.29;45.15;94668.69;5002436;28;20025;-75
2022/01/16 10:45:00;;;;;;;21.50;10.38;;;;;;;2.67;46.47;94670.03;5000717;28;20045;-74
2022/01/16 10:47:37;;;;;;;19.40;10.38;;;;;;;2.52;45.66;94611.00;4999842;28;20434;-74
2022/01/16 10:50:04;;;;;;;19.80;10.70;;;;;;;2.87;46.10;94675.53;5016837;28;20387;-75
2022/01/16 10:52:30;;;;;;;17.02;10.07;;;;;;;2.39;46.88;94668.34;5007553;28;20046;-75
2022/01/16 10:55:04;;;;;;;19.92;9.88;;;;;;;1.92;47.96;94654.75;5006528;28;20506;-74
2022/01/16 10:57:30;;;;;;;21.87;9.47;;;;;;;2.14;47.30;94650.38;4993020;28;20131;-76
2022/01/16 11:00:04;;;;;;;17.48;9.65;;;;;;;2.39;47.42;94658.63;5001232;28;20038;-74
2022/01/16 11:02:30;;;;;;;17.05;9.68;;;;;;;2.82;46.19;94636.06;5005399;28;20567;-75
2022/01/16 11:05:05;;;;;;;17.48;9.73;;;;;;;3.12;45.43;94641.69;5002033;28;20053;-74
2022/01/16 11:07:30;;;;;;;16.33;9.48;;;;;;;3.39;45.15;94618.81;5004576;28;20413;-75
2022/01/16 11:09:55;;;;;;;12.55;8.82;;;;;;;3.28;44.93;94650.53;5000983;28;20037;-74
2022/01/16 11:12:22;;;;;;;22.02;11.20;;;;;;;2.70;45.83;94649.31;5007184;28;20034;-74
2022/01/16 11:14:47;;;;;;;20.92;11.05;;;;;;;2.16;46.81;94629.91;5000172;28;20137;-74
2022/01/16 11:17:13;;;;;;;17.92;10.02;;;;;;;2.01;47.44;94650.72;5001039;28;20035;-74
2022/01/16 11:19:39;;;;;;;27.65;11.82;;;;;;;2.53;46.98;94652.00;5003998;28;20049;-74
2022/01/16 11:22:10;;;;;;;18.27;10.15;;;;;;;3.22;45.97;94647.06;4999651;28;20536;-74
2022/01/16 11:24:48;;;;;;;18.13;10.10;;;;;;;3.16;45.66;94613.06;4999926;28;20898;-74
2022/01/16 11:27:16;;;;;;;17.80;9.38;;;;;;;3.17;45.60;94598.88;5006970;28;20571;-74
2022/01/16 11:29:43;;;;;;;22.05;11.23;;;;;;;2.42;46.37;94574.13;4998795;28;20022;-74
2022/01/16 11:32:09;;;;;;;16.13;8.90;;;;;;;3.35;45.55;94620.38;5000647;28;20488;-74
2022/01/16 11:34:35;;;;;;;17.63;9.48;;;;;;;3.37;44.94;94617.50;4999186;28;20541;-75
2022/01/16 11:37:01;;;;;;;18.20;10.35;;;;;;;2.60;45.17;94567.00;5002407;28;20867;-73
2022/01/16 11:39:37;;;;;;;19.05;9.57;;;;;;;3.51;44.75;94612.63;5006789;28;20033;-74
2022/01/16 11:42:04;;;;;;;18.10;10.45;;;;;;;3.38;44.65;94619.06;4999605;28;20033;-74
2022/01/16 11:44:32;;;;;;;16.67;10.00;;;;;;;3.48;44.36;94603.38;5000761;28;20128;-76
2022/01/16 11:47:00;;;;;;;19.23;9.98;;;;;;;3.72;43.86;94603.88;5001317;28;20044;-74
2022/01/16 11:49:43;;;;;;;15.55;9.35;;;;;;;3.96;43.36;94588.53;4998066;28;20178;-74
2022/01/16 11:52:10;;;;;;;29.33;13.57;;;;;;;3.82;43.27;94601.28;5001793;28;20056;-74
2022/01/16 11:54:38;;;;;;;24.38;11.35;;;;;;;4.03;43.48;94584.63;5003472;28;20045;-74
2022/01/16 11:57:23;;;;;;;20.60;10.50;;;;;;;3.77;43.32;94609.94;4996874;28;20497;-74
2022/01/16 11:59:53;;;;;;;23.33;11.70;;;;;;;2.87;44.29;94573.88;4994300;28;20052;-75
2022/01/16 12:02:24;;;;;;;18.33;9.90;;;;;;;3.11;44.51;94577.00;5002059;28;20033;-74
2022/01/16 12:04:53;;;;;;;18.17;10.70;;;;;;;3.19;44.28;94599.41;4998035;28;20050;-74
2022/01/16 12:07:20;;;;;;;26.38;12.15;;;;;;;3.47;43.96;94606.28;4999267;28;20590;-74
2022/01/16 12:09:51;;;;;;;27.38;11.52;;;;;;;3.20;44.56;94601.00;5000215;28;20046;-75
2022/01/16 12:12:16;;;;;;;15.77;10.00;;;;;;;3.47;43.77;94598.38;5006393;28;20108;-75
2022/01/16 12:15:03;;;;;;;20.80;9.85;;;;;;;3.50;43.67;94595.25;4996136;28;20071;-74
2022/01/16 12:17:46;;;;;;;24.08;10.57;;;;;;;4.04;43.11;94591.47;5000657;28;20038;-75
2022/01/16 12:20:17;;;;;;;25.13;10.80;;;;;;;3.81;42.98;94597.09;4999711;28;20056;-74